Strona główna
METAR-TAF:

METAR-TAF

Lotnisko :

Platforma wiertnicza

Troll A, Norwegia

Szerokość geograficzna: 60-38-42N, Długość geograficzna: 3-43-29E, wysokość: 20 m

Aktualna obserwacja pogody

Raport powstał 31 minut temu, godzina 00:50 UTC
Wiatr 25 kt od południe
Temperatura 6°C
Wilgotność 93%
Ciśnienie 1017 hPa
Widzialność: 7000 m

METAR: ENQA 050050Z AUTO 17025KT 7000NDV FEW005/// OVC047/// 06/05 Q1017 W04/S5

czas: 03:21 (01:21 UTC)


TAF: brakujący

Obserwacja i prognoza pogody dla ponad 4000 lotnisk (raport METAR i TAF).

Dostępne stacje oznaczono żółtymi i czerwonymi punktami na mapie.

Najedź kursorem aby zobaczyć nazwę stacji.

Kliknij aby zobaczyć obserwacje i prognozy pogody.

Aby zmienić mapę: kliknij na zielony przycisk z czarnym krzyżykiem, aby powiększyć; na zielony przycisk z myślnikiem, aby pomniejszyć; na zielone strzałki, aby przejść do map sąsiednich.


METAR-TAF: